sensor_id;sensor_type;location;lat;lon;timestamp;P1;durP1;ratioP1;P2;durP2;ratioP2
10150;SDS011;5116;52.318;4.644;2023-05-07T00:00:35;4.53;;;4.10;;
10150;SDS011;5116;52.318;4.644;2023-05-07T00:03:03;4.63;;;3.93;;
10150;SDS011;5116;52.318;4.644;2023-05-07T00:05:30;4.87;;;4.07;;
10150;SDS011;5116;52.318;4.644;2023-05-07T00:07:58;5.53;;;4.87;;
10150;SDS011;5116;52.318;4.644;2023-05-07T00:10:25;5.00;;;4.50;;
10150;SDS011;5116;52.318;4.644;2023-05-07T00:12:53;5.30;;;4.80;;
10150;SDS011;5116;52.318;4.644;2023-05-07T00:15:20;5.40;;;4.50;;
10150;SDS011;5116;52.318;4.644;2023-05-07T00:17:48;5.10;;;4.23;;
10150;SDS011;5116;52.318;4.644;2023-05-07T00:20:15;5.23;;;4.73;;
10150;SDS011;5116;52.318;4.644;2023-05-07T00:22:43;5.90;;;4.60;;
10150;SDS011;5116;52.318;4.644;2023-05-07T00:25:10;5.43;;;3.83;;
10150;SDS011;5116;52.318;4.644;2023-05-07T00:27:37;4.40;;;3.60;;
10150;SDS011;5116;52.318;4.644;2023-05-07T00:30:05;4.63;;;4.13;;
10150;SDS011;5116;52.318;4.644;2023-05-07T00:32:34;6.13;;;4.40;;
10150;SDS011;5116;52.318;4.644;2023-05-07T00:35:03;6.00;;;4.50;;
10150;SDS011;5116;52.318;4.644;2023-05-07T00:37:30;5.70;;;4.60;;
10150;SDS011;5116;52.318;4.644;2023-05-07T00:39:58;5.17;;;4.67;;
10150;SDS011;5116;52.318;4.644;2023-05-07T00:42:26;4.97;;;4.43;;
10150;SDS011;5116;52.318;4.644;2023-05-07T00:44:54;5.37;;;4.40;;
10150;SDS011;5116;52.318;4.644;2023-05-07T00:47:21;5.97;;;4.70;;
10150;SDS011;5116;52.318;4.644;2023-05-07T00:49:49;5.17;;;4.33;;
10150;SDS011;5116;52.318;4.644;2023-05-07T00:52:17;7.00;;;4.63;;
10150;SDS011;5116;52.318;4.644;2023-05-07T00:54:44;6.27;;;4.80;;
10150;SDS011;5116;52.318;4.644;2023-05-07T00:57:12;5.70;;;4.70;;
10150;SDS011;5116;52.318;4.644;2023-05-07T00:59:39;6.47;;;4.63;;
10150;SDS011;5116;52.318;4.644;2023-05-07T01:02:07;6.80;;;4.93;;
10150;SDS011;5116;52.318;4.644;2023-05-07T01:04:34;5.50;;;4.83;;
10150;SDS011;5116;52.318;4.644;2023-05-07T01:07:03;6.90;;;4.90;;
10150;SDS011;5116;52.318;4.644;2023-05-07T01:09:30;10.90;;;7.20;;
10150;SDS011;5116;52.318;4.644;2023-05-07T01:11:58;6.53;;;5.20;;
10150;SDS011;5116;52.318;4.644;2023-05-07T01:14:25;6.03;;;4.87;;
10150;SDS011;5116;52.318;4.644;2023-05-07T01:16:53;6.67;;;4.90;;
10150;SDS011;5116;52.318;4.644;2023-05-07T01:19:23;7.83;;;6.40;;
10150;SDS011;5116;52.318;4.644;2023-05-07T01:21:50;7.03;;;5.97;;
10150;SDS011;5116;52.318;4.644;2023-05-07T01:24:20;5.90;;;5.13;;
10150;SDS011;5116;52.318;4.644;2023-05-07T01:26:47;6.40;;;4.97;;
10150;SDS011;5116;52.318;4.644;2023-05-07T01:29:16;7.13;;;4.67;;
10150;SDS011;5116;52.318;4.644;2023-05-07T01:31:45;6.20;;;5.57;;
10150;SDS011;5116;52.318;4.644;2023-05-07T01:34:14;6.17;;;5.57;;
10150;SDS011;5116;52.318;4.644;2023-05-07T01:36:42;7.00;;;5.30;;
10150;SDS011;5116;52.318;4.644;2023-05-07T01:39:10;10.07;;;7.43;;
10150;SDS011;5116;52.318;4.644;2023-05-07T01:41:37;9.37;;;6.50;;
10150;SDS011;5116;52.318;4.644;2023-05-07T01:44:05;6.93;;;5.50;;
10150;SDS011;5116;52.318;4.644;2023-05-07T01:46:32;6.67;;;5.60;;
10150;SDS011;5116;52.318;4.644;2023-05-07T01:49:00;7.50;;;5.80;;
10150;SDS011;5116;52.318;4.644;2023-05-07T01:51:28;9.77;;;5.77;;
10150;SDS011;5116;52.318;4.644;2023-05-07T01:53:56;6.67;;;4.77;;
10150;SDS011;5116;52.318;4.644;2023-05-07T01:56:24;9.20;;;7.70;;
10150;SDS011;5116;52.318;4.644;2023-05-07T01:58:52;6.60;;;5.40;;
10150;SDS011;5116;52.318;4.644;2023-05-07T02:01:19;7.00;;;6.20;;
10150;SDS011;5116;52.318;4.644;2023-05-07T02:03:48;8.77;;;6.70;;
10150;SDS011;5116;52.318;4.644;2023-05-07T02:06:21;7.50;;;6.20;;
10150;SDS011;5116;52.318;4.644;2023-05-07T02:08:53;7.60;;;5.67;;
10150;SDS011;5116;52.318;4.644;2023-05-07T02:11:20;7.90;;;6.70;;
10150;SDS011;5116;52.318;4.644;2023-05-07T02:13:48;6.57;;;5.47;;
10150;SDS011;5116;52.318;4.644;2023-05-07T02:16:15;7.27;;;6.03;;
10150;SDS011;5116;52.318;4.644;2023-05-07T02:18:42;8.13;;;6.30;;
10150;SDS011;5116;52.318;4.644;2023-05-07T02:21:10;7.77;;;5.80;;
10150;SDS011;5116;52.318;4.644;2023-05-07T02:23:37;9.27;;;6.30;;
10150;SDS011;5116;52.318;4.644;2023-05-07T02:26:04;7.20;;;5.97;;
10150;SDS011;5116;52.318;4.644;2023-05-07T02:28:32;10.63;;;6.33;;
10150;SDS011;5116;52.318;4.644;2023-05-07T02:31:03;8.10;;;6.30;;
10150;SDS011;5116;52.318;4.644;2023-05-07T02:33:33;8.03;;;6.10;;
10150;SDS011;5116;52.318;4.644;2023-05-07T02:36:07;8.07;;;6.70;;
10150;SDS011;5116;52.318;4.644;2023-05-07T02:38:37;9.13;;;7.27;;
10150;SDS011;5116;52.318;4.644;2023-05-07T02:41:05;7.53;;;6.20;;
10150;SDS011;5116;52.318;4.644;2023-05-07T02:43:32;8.33;;;6.70;;
10150;SDS011;5116;52.318;4.644;2023-05-07T02:46:06;10.00;;;7.53;;
10150;SDS011;5116;52.318;4.644;2023-05-07T02:48:38;8.87;;;6.07;;
10150;SDS011;5116;52.318;4.644;2023-05-07T02:51:05;7.57;;;5.73;;
10150;SDS011;5116;52.318;4.644;2023-05-07T02:53:34;9.33;;;7.13;;
10150;SDS011;5116;52.318;4.644;2023-05-07T02:56:02;8.93;;;6.30;;
10150;SDS011;5116;52.318;4.644;2023-05-07T02:58:29;8.00;;;6.10;;
10150;SDS011;5116;52.318;4.644;2023-05-07T03:00:58;9.30;;;6.30;;
10150;SDS011;5116;52.318;4.644;2023-05-07T03:03:37;7.53;;;5.83;;
10150;SDS011;5116;52.318;4.644;2023-05-07T03:06:05;9.03;;;6.37;;
10150;SDS011;5116;52.318;4.644;2023-05-07T03:08:33;7.13;;;5.97;;
10150;SDS011;5116;52.318;4.644;2023-05-07T03:11:00;7.13;;;5.23;;
10150;SDS011;5116;52.318;4.644;2023-05-07T03:13:27;7.07;;;5.77;;
10150;SDS011;5116;52.318;4.644;2023-05-07T03:15:55;7.10;;;5.77;;
10150;SDS011;5116;52.318;4.644;2023-05-07T03:18:22;6.10;;;5.03;;
10150;SDS011;5116;52.318;4.644;2023-05-07T03:20:49;6.27;;;5.57;;
10150;SDS011;5116;52.318;4.644;2023-05-07T03:23:17;7.00;;;5.17;;
10150;SDS011;5116;52.318;4.644;2023-05-07T03:25:44;6.63;;;5.47;;
10150;SDS011;5116;52.318;4.644;2023-05-07T03:28:12;6.50;;;5.80;;
10150;SDS011;5116;52.318;4.644;2023-05-07T03:30:45;5.83;;;5.17;;
10150;SDS011;5116;52.318;4.644;2023-05-07T03:33:12;6.13;;;5.10;;
10150;SDS011;5116;52.318;4.644;2023-05-07T03:35:40;7.00;;;5.87;;
10150;SDS011;5116;52.318;4.644;2023-05-07T03:38:08;7.83;;;5.27;;
10150;SDS011;5116;52.318;4.644;2023-05-07T03:40:37;5.73;;;4.90;;
10150;SDS011;5116;52.318;4.644;2023-05-07T03:43:05;6.13;;;4.77;;
10150;SDS011;5116;52.318;4.644;2023-05-07T03:45:36;6.23;;;4.97;;
10150;SDS011;5116;52.318;4.644;2023-05-07T03:48:09;6.87;;;4.90;;
10150;SDS011;5116;52.318;4.644;2023-05-07T03:50:37;6.53;;;4.87;;
10150;SDS011;5116;52.318;4.644;2023-05-07T03:53:05;6.10;;;4.63;;
10150;SDS011;5116;52.318;4.644;2023-05-07T03:55:37;4.97;;;4.43;;
10150;SDS011;5116;52.318;4.644;2023-05-07T03:58:05;5.43;;;4.23;;
10150;SDS011;5116;52.318;4.644;2023-05-07T04:00:32;5.37;;;4.57;;
10150;SDS011;5116;52.318;4.644;2023-05-07T04:03:13;5.50;;;4.60;;
10150;SDS011;5116;52.318;4.644;2023-05-07T04:05:41;4.73;;;4.30;;
10150;SDS011;5116;52.318;4.644;2023-05-07T04:08:08;5.30;;;4.40;;
10150;SDS011;5116;52.318;4.644;2023-05-07T04:10:42;4.87;;;4.37;;
10150;SDS011;5116;52.318;4.644;2023-05-07T04:13:12;5.50;;;4.37;;
10150;SDS011;5116;52.318;4.644;2023-05-07T04:15:40;6.07;;;4.60;;
10150;SDS011;5116;52.318;4.644;2023-05-07T04:18:10;5.53;;;4.27;;
10150;SDS011;5116;52.318;4.644;2023-05-07T04:20:40;4.07;;;3.70;;
10150;SDS011;5116;52.318;4.644;2023-05-07T04:23:10;6.07;;;4.00;;
10150;SDS011;5116;52.318;4.644;2023-05-07T04:25:39;4.83;;;4.13;;
10150;SDS011;5116;52.318;4.644;2023-05-07T04:28:12;5.83;;;4.67;;
10150;SDS011;5116;52.318;4.644;2023-05-07T04:30:40;4.43;;;3.93;;
10150;SDS011;5116;52.318;4.644;2023-05-07T04:33:09;5.93;;;4.10;;
10150;SDS011;5116;52.318;4.644;2023-05-07T04:35:40;4.70;;;4.20;;
10150;SDS011;5116;52.318;4.644;2023-05-07T04:38:07;6.00;;;4.30;;
10150;SDS011;5116;52.318;4.644;2023-05-07T04:40:35;4.47;;;4.07;;
10150;SDS011;5116;52.318;4.644;2023-05-07T04:43:03;4.80;;;4.23;;
10150;SDS011;5116;52.318;4.644;2023-05-07T04:45:37;4.83;;;3.83;;
10150;SDS011;5116;52.318;4.644;2023-05-07T04:48:08;4.50;;;4.07;;
10150;SDS011;5116;52.318;4.644;2023-05-07T04:50:38;4.80;;;4.30;;
10150;SDS011;5116;52.318;4.644;2023-05-07T04:53:07;4.77;;;4.13;;
10150;SDS011;5116;52.318;4.644;2023-05-07T04:55:34;4.43;;;3.87;;
10150;SDS011;5116;52.318;4.644;2023-05-07T04:58:02;5.27;;;3.80;;
10150;SDS011;5116;52.318;4.644;2023-05-07T05:00:33;3.77;;;3.43;;
10150;SDS011;5116;52.318;4.644;2023-05-07T05:03:03;5.10;;;3.50;;
10150;SDS011;5116;52.318;4.644;2023-05-07T05:05:32;3.67;;;3.07;;
10150;SDS011;5116;52.318;4.644;2023-05-07T05:08:00;3.77;;;3.10;;
10150;SDS011;5116;52.318;4.644;2023-05-07T05:10:28;4.00;;;3.60;;
10150;SDS011;5116;52.318;4.644;2023-05-07T05:12:55;3.90;;;3.20;;
10150;SDS011;5116;52.318;4.644;2023-05-07T05:15:23;3.73;;;3.20;;
10150;SDS011;5116;52.318;4.644;2023-05-07T05:17:51;3.90;;;3.50;;
10150;SDS011;5116;52.318;4.644;2023-05-07T05:20:18;3.63;;;3.33;;
10150;SDS011;5116;52.318;4.644;2023-05-07T05:22:47;4.23;;;3.47;;
10150;SDS011;5116;52.318;4.644;2023-05-07T05:25:15;4.37;;;3.33;;
10150;SDS011;5116;52.318;4.644;2023-05-07T05:27:42;3.53;;;2.97;;
10150;SDS011;5116;52.318;4.644;2023-05-07T05:30:10;3.90;;;3.40;;
10150;SDS011;5116;52.318;4.644;2023-05-07T05:32:38;4.23;;;3.50;;
10150;SDS011;5116;52.318;4.644;2023-05-07T05:35:06;4.53;;;3.17;;
10150;SDS011;5116;52.318;4.644;2023-05-07T05:37:35;3.53;;;2.60;;
10150;SDS011;5116;52.318;4.644;2023-05-07T05:40:04;3.63;;;3.30;;
10150;SDS011;5116;52.318;4.644;2023-05-07T05:42:32;5.18;;;4.10;;
10150;SDS011;5116;52.318;4.644;2023-05-07T05:45:00;4.10;;;3.40;;
10150;SDS011;5116;52.318;4.644;2023-05-07T05:47:29;3.43;;;3.13;;
10150;SDS011;5116;52.318;4.644;2023-05-07T05:49:57;4.10;;;3.70;;
10150;SDS011;5116;52.318;4.644;2023-05-07T05:52:24;3.63;;;3.33;;
10150;SDS011;5116;52.318;4.644;2023-05-07T05:54:53;3.93;;;3.60;;
10150;SDS011;5116;52.318;4.644;2023-05-07T05:57:21;4.37;;;3.97;;
10150;SDS011;5116;52.318;4.644;2023-05-07T05:59:49;4.87;;;3.80;;
10150;SDS011;5116;52.318;4.644;2023-05-07T06:02:16;4.00;;;3.60;;
10150;SDS011;5116;52.318;4.644;2023-05-07T06:04:44;3.93;;;3.53;;
10150;SDS011;5116;52.318;4.644;2023-05-07T06:07:16;3.30;;;3.00;;
10150;SDS011;5116;52.318;4.644;2023-05-07T06:09:43;4.00;;;3.60;;
10150;SDS011;5116;52.318;4.644;2023-05-07T06:12:11;4.10;;;3.70;;
10150;SDS011;5116;52.318;4.644;2023-05-07T06:14:39;4.40;;;4.00;;
10150;SDS011;5116;52.318;4.644;2023-05-07T06:17:07;4.47;;;3.60;;
10150;SDS011;5116;52.318;4.644;2023-05-07T06:19:35;4.03;;;3.70;;
10150;SDS011;5116;52.318;4.644;2023-05-07T06:22:03;4.57;;;3.60;;
10150;SDS011;5116;52.318;4.644;2023-05-07T06:24:32;5.53;;;3.97;;
10150;SDS011;5116;52.318;4.644;2023-05-07T06:27:00;4.63;;;3.40;;
10150;SDS011;5116;52.318;4.644;2023-05-07T06:29:29;4.20;;;3.80;;
10150;SDS011;5116;52.318;4.644;2023-05-07T06:32:10;5.10;;;4.57;;
10150;SDS011;5116;52.318;4.644;2023-05-07T06:34:39;5.23;;;4.27;;
10150;SDS011;5116;52.318;4.644;2023-05-07T06:37:07;7.10;;;4.50;;
10150;SDS011;5116;52.318;4.644;2023-05-07T06:39:52;6.60;;;5.07;;
10150;SDS011;5116;52.318;4.644;2023-05-07T06:42:19;5.17;;;4.47;;
10150;SDS011;5116;52.318;4.644;2023-05-07T06:44:48;5.03;;;4.47;;
10150;SDS011;5116;52.318;4.644;2023-05-07T06:47:17;4.90;;;4.33;;
10150;SDS011;5116;52.318;4.644;2023-05-07T06:49:49;6.93;;;5.33;;
10150;SDS011;5116;52.318;4.644;2023-05-07T06:52:19;5.67;;;5.10;;
10150;SDS011;5116;52.318;4.644;2023-05-07T06:54:49;6.20;;;5.50;;
10150;SDS011;5116;52.318;4.644;2023-05-07T06:57:19;5.53;;;4.30;;
10150;SDS011;5116;52.318;4.644;2023-05-07T06:59:47;6.53;;;5.83;;
10150;SDS011;5116;52.318;4.644;2023-05-07T07:02:15;5.57;;;4.87;;
10150;SDS011;5116;52.318;4.644;2023-05-07T07:04:45;5.97;;;4.83;;
10150;SDS011;5116;52.318;4.644;2023-05-07T07:07:13;5.60;;;5.10;;
10150;SDS011;5116;52.318;4.644;2023-05-07T07:09:43;6.43;;;5.10;;
10150;SDS011;5116;52.318;4.644;2023-05-07T07:12:13;6.07;;;4.93;;
10150;SDS011;5116;52.318;4.644;2023-05-07T07:14:41;6.23;;;4.80;;
10150;SDS011;5116;52.318;4.644;2023-05-07T07:17:09;5.57;;;4.50;;
10150;SDS011;5116;52.318;4.644;2023-05-07T07:19:36;5.63;;;4.70;;
10150;SDS011;5116;52.318;4.644;2023-05-07T07:22:05;5.77;;;5.17;;
10150;SDS011;5116;52.318;4.644;2023-05-07T07:24:33;5.10;;;4.60;;
10150;SDS011;5116;52.318;4.644;2023-05-07T07:27:04;7.63;;;5.70;;
10150;SDS011;5116;52.318;4.644;2023-05-07T07:29:33;6.70;;;4.83;;
10150;SDS011;5116;52.318;4.644;2023-05-07T07:32:01;5.60;;;5.03;;
10150;SDS011;5116;52.318;4.644;2023-05-07T07:34:28;5.23;;;4.50;;
10150;SDS011;5116;52.318;4.644;2023-05-07T07:36:57;5.03;;;4.57;;
10150;SDS011;5116;52.318;4.644;2023-05-07T07:39:24;5.70;;;4.80;;
10150;SDS011;5116;52.318;4.644;2023-05-07T07:41:54;5.83;;;4.67;;
10150;SDS011;5116;52.318;4.644;2023-05-07T07:44:23;5.97;;;5.13;;
10150;SDS011;5116;52.318;4.644;2023-05-07T07:46:56;4.80;;;4.23;;
10150;SDS011;5116;52.318;4.644;2023-05-07T07:49:25;4.70;;;4.23;;
10150;SDS011;5116;52.318;4.644;2023-05-07T07:51:54;4.83;;;4.33;;
10150;SDS011;5116;52.318;4.644;2023-05-07T07:54:22;6.03;;;4.90;;
10150;SDS011;5116;52.318;4.644;2023-05-07T07:56:50;5.57;;;5.03;;
10150;SDS011;5116;52.318;4.644;2023-05-07T07:59:18;5.13;;;4.40;;
10150;SDS011;5116;52.318;4.644;2023-05-07T08:01:48;6.70;;;4.63;;
10150;SDS011;5116;52.318;4.644;2023-05-07T08:04:20;6.47;;;4.47;;
10150;SDS011;5116;52.318;4.644;2023-05-07T08:06:48;6.43;;;4.93;;
10150;SDS011;5116;52.318;4.644;2023-05-07T08:09:15;4.83;;;4.33;;
10150;SDS011;5116;52.318;4.644;2023-05-07T08:11:44;9.83;;;5.13;;
10150;SDS011;5116;52.318;4.644;2023-05-07T08:14:12;6.33;;;5.40;;
10150;SDS011;5116;52.318;4.644;2023-05-07T08:16:44;5.80;;;5.10;;
10150;SDS011;5116;52.318;4.644;2023-05-07T08:19:12;5.13;;;4.50;;
10150;SDS011;5116;52.318;4.644;2023-05-07T08:21:40;5.33;;;4.83;;
10150;SDS011;5116;52.318;4.644;2023-05-07T08:24:09;7.10;;;5.03;;
10150;SDS011;5116;52.318;4.644;2023-05-07T08:26:37;7.30;;;5.00;;
10150;SDS011;5116;52.318;4.644;2023-05-07T08:29:07;5.20;;;4.70;;
10150;SDS011;5116;52.318;4.644;2023-05-07T08:31:35;5.70;;;5.13;;
10150;SDS011;5116;52.318;4.644;2023-05-07T08:34:03;5.03;;;4.53;;
10150;SDS011;5116;52.318;4.644;2023-05-07T08:36:35;7.60;;;5.33;;
10150;SDS011;5116;52.318;4.644;2023-05-07T08:39:03;5.73;;;5.10;;
10150;SDS011;5116;52.318;4.644;2023-05-07T08:41:31;4.00;;;3.67;;
10150;SDS011;5116;52.318;4.644;2023-05-07T08:43:58;6.27;;;4.93;;
10150;SDS011;5116;52.318;4.644;2023-05-07T08:46:30;5.80;;;5.03;;
10150;SDS011;5116;52.318;4.644;2023-05-07T08:48:58;6.17;;;5.10;;
10150;SDS011;5116;52.318;4.644;2023-05-07T08:51:26;5.50;;;4.67;;
10150;SDS011;5116;52.318;4.644;2023-05-07T08:53:54;6.00;;;4.17;;
10150;SDS011;5116;52.318;4.644;2023-05-07T08:56:26;5.77;;;4.73;;
10150;SDS011;5116;52.318;4.644;2023-05-07T08:58:54;6.47;;;4.87;;
10150;SDS011;5116;52.318;4.644;2023-05-07T09:01:26;4.97;;;4.47;;
10150;SDS011;5116;52.318;4.644;2023-05-07T09:03:54;3.70;;;3.37;;
10150;SDS011;5116;52.318;4.644;2023-05-07T09:06:22;5.73;;;4.90;;
10150;SDS011;5116;52.318;4.644;2023-05-07T09:08:51;4.50;;;3.63;;
10150;SDS011;5116;52.318;4.644;2023-05-07T09:11:23;6.17;;;4.93;;
10150;SDS011;5116;52.318;4.644;2023-05-07T09:13:56;7.60;;;4.67;;
10150;SDS011;5116;52.318;4.644;2023-05-07T09:16:26;5.73;;;4.30;;
10150;SDS011;5116;52.318;4.644;2023-05-07T09:18:54;5.20;;;4.27;;
10150;SDS011;5116;52.318;4.644;2023-05-07T09:21:22;3.97;;;3.23;;
10150;SDS011;5116;52.318;4.644;2023-05-07T09:23:53;3.40;;;3.10;;
10150;SDS011;5116;52.318;4.644;2023-05-07T09:26:24;4.50;;;3.10;;
10150;SDS011;5116;52.318;4.644;2023-05-07T09:28:54;3.43;;;3.13;;
10150;SDS011;5116;52.318;4.644;2023-05-07T09:31:22;4.83;;;3.53;;
10150;SDS011;5116;52.318;4.644;2023-05-07T09:33:54;3.70;;;3.40;;
10150;SDS011;5116;52.318;4.644;2023-05-07T09:36:24;4.17;;;3.37;;
10150;SDS011;5116;52.318;4.644;2023-05-07T09:38:51;4.33;;;3.60;;
10150;SDS011;5116;52.318;4.644;2023-05-07T09:41:19;3.53;;;3.00;;
10150;SDS011;5116;52.318;4.644;2023-05-07T09:43:57;4.20;;;3.17;;
10150;SDS011;5116;52.318;4.644;2023-05-07T09:46:34;4.57;;;3.80;;
10150;SDS011;5116;52.318;4.644;2023-05-07T09:49:07;5.07;;;3.80;;
10150;SDS011;5116;52.318;4.644;2023-05-07T09:51:42;5.60;;;3.47;;
10150;SDS011;5116;52.318;4.644;2023-05-07T09:54:10;3.43;;;2.60;;
10150;SDS011;5116;52.318;4.644;2023-05-07T09:56:40;3.23;;;2.43;;
10150;SDS011;5116;52.318;4.644;2023-05-07T09:59:10;5.23;;;2.30;;
10150;SDS011;5116;52.318;4.644;2023-05-07T10:01:40;4.17;;;2.57;;
10150;SDS011;5116;52.318;4.644;2023-05-07T10:04:09;3.17;;;2.87;;
10150;SDS011;5116;52.318;4.644;2023-05-07T10:06:38;3.30;;;3.00;;
10150;SDS011;5116;52.318;4.644;2023-05-07T10:09:06;3.33;;;2.37;;
10150;SDS011;5116;52.318;4.644;2023-05-07T10:11:34;4.17;;;2.40;;
10150;SDS011;5116;52.318;4.644;2023-05-07T10:14:03;3.73;;;2.37;;
10150;SDS011;5116;52.318;4.644;2023-05-07T10:16:35;2.87;;;2.37;;
10150;SDS011;5116;52.318;4.644;2023-05-07T10:19:08;2.70;;;2.50;;
10150;SDS011;5116;52.318;4.644;2023-05-07T10:21:51;4.27;;;3.07;;
10150;SDS011;5116;52.318;4.644;2023-05-07T10:24:27;3.33;;;2.97;;
10150;SDS011;5116;52.318;4.644;2023-05-07T10:26:57;2.73;;;2.50;;
10150;SDS011;5116;52.318;4.644;2023-05-07T10:34:43;2.50;;;2.30;;
10150;SDS011;5116;52.318;4.644;2023-05-07T10:37:12;3.73;;;2.20;;
10150;SDS011;5116;52.318;4.644;2023-05-07T10:39:40;4.60;;;2.47;;
10150;SDS011;5116;52.318;4.644;2023-05-07T10:42:09;2.53;;;1.97;;
10150;SDS011;5116;52.318;4.644;2023-05-07T10:44:40;2.63;;;2.43;;
10150;SDS011;5116;52.318;4.644;2023-05-07T10:47:15;2.70;;;2.50;;
10150;SDS011;5116;52.318;4.644;2023-05-07T10:52:24;2.40;;;2.13;;
10150;SDS011;5116;52.318;4.644;2023-05-07T11:00:58;2.43;;;2.23;;
10150;SDS011;5116;52.318;4.644;2023-05-07T11:03:32;2.23;;;1.90;;
10150;SDS011;5116;52.318;4.644;2023-05-07T11:06:14;3.73;;;2.73;;
10150;SDS011;5116;52.318;4.644;2023-05-07T11:14:13;3.03;;;2.00;;
10150;SDS011;5116;52.318;4.644;2023-05-07T11:16:47;3.13;;;2.20;;
10150;SDS011;5116;52.318;4.644;2023-05-07T11:22:31;1.77;;;1.67;;
10150;SDS011;5116;52.318;4.644;2023-05-07T11:25:06;1.97;;;1.87;;
10150;SDS011;5116;52.318;4.644;2023-05-07T11:27:35;2.40;;;2.20;;
10150;SDS011;5116;52.318;4.644;2023-05-07T11:30:03;2.37;;;2.13;;
10150;SDS011;5116;52.318;4.644;2023-05-07T11:32:31;1.97;;;1.80;;
10150;SDS011;5116;52.318;4.644;2023-05-07T11:35:00;2.60;;;2.40;;
10150;SDS011;5116;52.318;4.644;2023-05-07T11:37:27;3.57;;;1.80;;
10150;SDS011;5116;52.318;4.644;2023-05-07T11:40:11;2.50;;;1.93;;
10150;SDS011;5116;52.318;4.644;2023-05-07T11:42:40;2.20;;;2.10;;
10150;SDS011;5116;52.318;4.644;2023-05-07T11:45:11;3.63;;;2.00;;
10150;SDS011;5116;52.318;4.644;2023-05-07T11:47:41;2.53;;;2.27;;
10150;SDS011;5116;52.318;4.644;2023-05-07T11:50:10;2.20;;;2.00;;
10150;SDS011;5116;52.318;4.644;2023-05-07T11:52:37;2.87;;;2.10;;
10150;SDS011;5116;52.318;4.644;2023-05-07T11:55:06;3.97;;;2.10;;
10150;SDS011;5116;52.318;4.644;2023-05-07T11:57:34;2.03;;;1.73;;
10150;SDS011;5116;52.318;4.644;2023-05-07T12:00:02;1.67;;;1.50;;
10150;SDS011;5116;52.318;4.644;2023-05-07T12:02:41;2.13;;;1.80;;
10150;SDS011;5116;52.318;4.644;2023-05-07T12:05:09;2.87;;;1.80;;
10150;SDS011;5116;52.318;4.644;2023-05-07T12:07:36;3.43;;;1.80;;
10150;SDS011;5116;52.318;4.644;2023-05-07T12:10:07;1.80;;;1.50;;
10150;SDS011;5116;52.318;4.644;2023-05-07T12:12:41;2.00;;;1.70;;
10150;SDS011;5116;52.318;4.644;2023-05-07T12:15:08;1.83;;;1.60;;
10150;SDS011;5116;52.318;4.644;2023-05-07T12:17:37;2.10;;;1.70;;
10150;SDS011;5116;52.318;4.644;2023-05-07T12:20:04;1.60;;;1.50;;
10150;SDS011;5116;52.318;4.644;2023-05-07T12:22:32;2.70;;;1.63;;
10150;SDS011;5116;52.318;4.644;2023-05-07T12:24:59;3.27;;;2.10;;
10150;SDS011;5116;52.318;4.644;2023-05-07T12:27:27;2.10;;;1.87;;
10150;SDS011;5116;52.318;4.644;2023-05-07T12:29:54;2.80;;;2.50;;
10150;SDS011;5116;52.318;4.644;2023-05-07T12:32:24;1.83;;;1.50;;
10150;SDS011;5116;52.318;4.644;2023-05-07T12:34:51;2.50;;;1.87;;
10150;SDS011;5116;52.318;4.644;2023-05-07T12:37:25;1.43;;;1.33;;
10150;SDS011;5116;52.318;4.644;2023-05-07T12:40:09;2.13;;;1.93;;
10150;SDS011;5116;52.318;4.644;2023-05-07T12:42:38;2.60;;;1.73;;
10150;SDS011;5116;52.318;4.644;2023-05-07T12:45:12;2.10;;;2.00;;
10150;SDS011;5116;52.318;4.644;2023-05-07T12:47:43;3.67;;;2.10;;
10150;SDS011;5116;52.318;4.644;2023-05-07T12:50:12;4.63;;;3.23;;
10150;SDS011;5116;52.318;4.644;2023-05-07T12:52:40;2.83;;;2.20;;
10150;SDS011;5116;52.318;4.644;2023-05-07T12:55:07;2.43;;;2.00;;
10150;SDS011;5116;52.318;4.644;2023-05-07T12:57:38;3.90;;;2.53;;
10150;SDS011;5116;52.318;4.644;2023-05-07T13:00:07;4.07;;;2.83;;
10150;SDS011;5116;52.318;4.644;2023-05-07T13:02:39;2.97;;;2.57;;
10150;SDS011;5116;52.318;4.644;2023-05-07T13:05:07;2.47;;;2.27;;
10150;SDS011;5116;52.318;4.644;2023-05-07T13:07:35;3.73;;;3.40;;
10150;SDS011;5116;52.318;4.644;2023-05-07T13:10:03;4.07;;;2.77;;
10150;SDS011;5116;52.318;4.644;2023-05-07T13:12:31;9.43;;;3.40;;
10150;SDS011;5116;52.318;4.644;2023-05-07T13:14:59;3.00;;;2.60;;
10150;SDS011;5116;52.318;4.644;2023-05-07T13:17:26;3.07;;;2.63;;
10150;SDS011;5116;52.318;4.644;2023-05-07T13:19:54;3.53;;;3.00;;
10150;SDS011;5116;52.318;4.644;2023-05-07T13:22:21;4.53;;;4.00;;
10150;SDS011;5116;52.318;4.644;2023-05-07T13:24:48;4.27;;;2.93;;
10150;SDS011;5116;52.318;4.644;2023-05-07T13:27:16;4.87;;;3.10;;
10150;SDS011;5116;52.318;4.644;2023-05-07T13:29:45;4.43;;;2.73;;
10150;SDS011;5116;52.318;4.644;2023-05-07T13:32:12;4.50;;;3.50;;
10150;SDS011;5116;52.318;4.644;2023-05-07T13:34:40;3.90;;;3.43;;
10150;SDS011;5116;52.318;4.644;2023-05-07T13:37:07;4.90;;;4.33;;
10150;SDS011;5116;52.318;4.644;2023-05-07T13:39:36;5.87;;;2.70;;
10150;SDS011;5116;52.318;4.644;2023-05-07T13:42:04;3.80;;;3.50;;
10150;SDS011;5116;52.318;4.644;2023-05-07T13:44:31;6.30;;;4.60;;
10150;SDS011;5116;52.318;4.644;2023-05-07T13:46:59;3.90;;;3.23;;
10150;SDS011;5116;52.318;4.644;2023-05-07T13:49:27;5.30;;;3.40;;
10150;SDS011;5116;52.318;4.644;2023-05-07T13:51:54;5.23;;;3.73;;
10150;SDS011;5116;52.318;4.644;2023-05-07T13:54:22;6.87;;;5.90;;
10150;SDS011;5116;52.318;4.644;2023-05-07T13:56:50;3.97;;;3.37;;
10150;SDS011;5116;52.318;4.644;2023-05-07T13:59:17;6.13;;;4.23;;
10150;SDS011;5116;52.318;4.644;2023-05-07T14:01:45;4.13;;;3.70;;
10150;SDS011;5116;52.318;4.644;2023-05-07T14:04:13;5.43;;;4.30;;
10150;SDS011;5116;52.318;4.644;2023-05-07T14:06:40;4.70;;;4.13;;
10150;SDS011;5116;52.318;4.644;2023-05-07T14:09:08;7.63;;;5.70;;
10150;SDS011;5116;52.318;4.644;2023-05-07T14:11:38;4.23;;;3.83;;
10150;SDS011;5116;52.318;4.644;2023-05-07T14:14:06;5.47;;;4.43;;
10150;SDS011;5116;52.318;4.644;2023-05-07T14:16:33;5.23;;;4.70;;
10150;SDS011;5116;52.318;4.644;2023-05-07T14:19:01;4.77;;;4.10;;
10150;SDS011;5116;52.318;4.644;2023-05-07T14:21:28;5.23;;;4.30;;
10150;SDS011;5116;52.318;4.644;2023-05-07T14:23:57;4.83;;;4.13;;
10150;SDS011;5116;52.318;4.644;2023-05-07T14:26:24;4.93;;;4.17;;
10150;SDS011;5116;52.318;4.644;2023-05-07T14:28:53;6.90;;;4.77;;
10150;SDS011;5116;52.318;4.644;2023-05-07T14:31:23;4.20;;;3.80;;
10150;SDS011;5116;52.318;4.644;2023-05-07T14:33:51;4.70;;;4.20;;
10150;SDS011;5116;52.318;4.644;2023-05-07T14:36:19;5.67;;;4.13;;
10150;SDS011;5116;52.318;4.644;2023-05-07T14:38:47;5.77;;;4.40;;
10150;SDS011;5116;52.318;4.644;2023-05-07T14:41:15;5.13;;;4.10;;
10150;SDS011;5116;52.318;4.644;2023-05-07T14:43:42;6.53;;;4.27;;
10150;SDS011;5116;52.318;4.644;2023-05-07T14:46:16;6.10;;;4.43;;
10150;SDS011;5116;52.318;4.644;2023-05-07T14:48:44;6.77;;;4.87;;
10150;SDS011;5116;52.318;4.644;2023-05-07T14:51:15;6.00;;;4.63;;
10150;SDS011;5116;52.318;4.644;2023-05-07T14:53:42;5.97;;;4.53;;
10150;SDS011;5116;52.318;4.644;2023-05-07T14:56:10;4.57;;;3.90;;
10150;SDS011;5116;52.318;4.644;2023-05-07T14:58:37;4.30;;;3.90;;
10150;SDS011;5116;52.318;4.644;2023-05-07T15:01:05;5.80;;;4.33;;
10150;SDS011;5116;52.318;4.644;2023-05-07T15:03:32;7.07;;;4.13;;
10150;SDS011;5116;52.318;4.644;2023-05-07T15:06:01;4.20;;;3.60;;
10150;SDS011;5116;52.318;4.644;2023-05-07T15:08:29;4.10;;;3.70;;
10150;SDS011;5116;52.318;4.644;2023-05-07T15:10:56;4.37;;;3.83;;
10150;SDS011;5116;52.318;4.644;2023-05-07T15:13:24;5.67;;;3.97;;
10150;SDS011;5116;52.318;4.644;2023-05-07T15:15:51;5.83;;;3.90;;
10150;SDS011;5116;52.318;4.644;2023-05-07T15:18:19;4.10;;;3.47;;
10150;SDS011;5116;52.318;4.644;2023-05-07T15:20:48;4.50;;;3.73;;
10150;SDS011;5116;52.318;4.644;2023-05-07T15:23:15;4.13;;;3.23;;
10150;SDS011;5116;52.318;4.644;2023-05-07T15:25:46;6.93;;;3.50;;
10150;SDS011;5116;52.318;4.644;2023-05-07T15:28:17;4.63;;;3.60;;
10150;SDS011;5116;52.318;4.644;2023-05-07T15:30:45;7.33;;;4.57;;
10150;SDS011;5116;52.318;4.644;2023-05-07T15:33:12;6.83;;;5.27;;